sensor_id;sensor_type;location;lat;lon;timestamp;P1;durP1;ratioP1;P2;durP2;ratioP2
20621;SDS011;10470;42.670;23.354;2022-11-02T00:02:15;24.77;;;12.00;;
20621;SDS011;10470;42.670;23.354;2022-11-02T00:04:41;27.73;;;12.30;;
20621;SDS011;10470;42.670;23.354;2022-11-02T00:07:06;24.27;;;12.00;;
20621;SDS011;10470;42.670;23.354;2022-11-02T00:09:32;23.93;;;11.30;;
20621;SDS011;10470;42.670;23.354;2022-11-02T00:11:57;23.83;;;10.40;;
20621;SDS011;10470;42.670;23.354;2022-11-02T00:14:23;22.10;;;11.00;;
20621;SDS011;10470;42.670;23.354;2022-11-02T00:16:48;23.27;;;10.37;;
20621;SDS011;10470;42.670;23.354;2022-11-02T00:19:14;20.77;;;11.07;;
20621;SDS011;10470;42.670;23.354;2022-11-02T00:21:40;23.13;;;10.83;;
20621;SDS011;10470;42.670;23.354;2022-11-02T00:24:05;21.37;;;10.57;;
20621;SDS011;10470;42.670;23.354;2022-11-02T00:26:33;21.67;;;11.50;;
20621;SDS011;10470;42.670;23.354;2022-11-02T00:29:00;22.47;;;11.00;;
20621;SDS011;10470;42.670;23.354;2022-11-02T00:31:27;27.23;;;12.03;;
20621;SDS011;10470;42.670;23.354;2022-11-02T00:33:52;25.77;;;11.80;;
20621;SDS011;10470;42.670;23.354;2022-11-02T00:36:18;21.93;;;11.37;;
20621;SDS011;10470;42.670;23.354;2022-11-02T00:38:44;22.30;;;11.87;;
20621;SDS011;10470;42.670;23.354;2022-11-02T00:41:09;22.70;;;10.93;;
20621;SDS011;10470;42.670;23.354;2022-11-02T00:43:36;25.00;;;11.77;;
20621;SDS011;10470;42.670;23.354;2022-11-02T00:46:02;21.00;;;11.03;;
20621;SDS011;10470;42.670;23.354;2022-11-02T00:48:28;23.00;;;11.03;;
20621;SDS011;10470;42.670;23.354;2022-11-02T00:50:53;20.57;;;11.53;;
20621;SDS011;10470;42.670;23.354;2022-11-02T00:53:19;26.13;;;12.20;;
20621;SDS011;10470;42.670;23.354;2022-11-02T00:55:44;28.30;;;11.73;;
20621;SDS011;10470;42.670;23.354;2022-11-02T00:58:10;24.83;;;11.53;;
20621;SDS011;10470;42.670;23.354;2022-11-02T01:00:35;19.57;;;10.80;;
20621;SDS011;10470;42.670;23.354;2022-11-02T01:03:01;20.97;;;11.07;;
20621;SDS011;10470;42.670;23.354;2022-11-02T01:05:27;21.87;;;11.10;;
20621;SDS011;10470;42.670;23.354;2022-11-02T01:07:53;18.63;;;10.33;;
20621;SDS011;10470;42.670;23.354;2022-11-02T01:10:18;23.00;;;10.47;;
20621;SDS011;10470;42.670;23.354;2022-11-02T01:12:44;21.03;;;11.53;;
20621;SDS011;10470;42.670;23.354;2022-11-02T01:15:09;25.60;;;11.03;;
20621;SDS011;10470;42.670;23.354;2022-11-02T01:17:35;22.23;;;10.70;;
20621;SDS011;10470;42.670;23.354;2022-11-02T01:20:01;19.80;;;10.13;;
20621;SDS011;10470;42.670;23.354;2022-11-02T01:22:27;22.83;;;11.13;;
20621;SDS011;10470;42.670;23.354;2022-11-02T01:24:52;19.27;;;10.00;;
20621;SDS011;10470;42.670;23.354;2022-11-02T01:27:18;21.93;;;11.00;;
20621;SDS011;10470;42.670;23.354;2022-11-02T01:29:43;19.90;;;10.20;;
20621;SDS011;10470;42.670;23.354;2022-11-02T01:32:09;20.70;;;10.23;;
20621;SDS011;10470;42.670;23.354;2022-11-02T01:34:34;23.60;;;10.73;;
20621;SDS011;10470;42.670;23.354;2022-11-02T01:37:00;21.53;;;10.43;;
20621;SDS011;10470;42.670;23.354;2022-11-02T01:39:25;21.80;;;11.37;;
20621;SDS011;10470;42.670;23.354;2022-11-02T01:41:51;19.57;;;10.13;;
20621;SDS011;10470;42.670;23.354;2022-11-02T01:44:28;24.63;;;11.93;;
20621;SDS011;10470;42.670;23.354;2022-11-02T01:46:58;22.40;;;10.97;;
20621;SDS011;10470;42.670;23.354;2022-11-02T01:49:41;22.60;;;11.43;;
20621;SDS011;10470;42.670;23.354;2022-11-02T01:52:12;19.90;;;10.63;;
20621;SDS011;10470;42.670;23.354;2022-11-02T01:54:45;24.27;;;11.93;;
20621;SDS011;10470;42.670;23.354;2022-11-02T01:57:18;23.60;;;11.23;;
20621;SDS011;10470;42.670;23.354;2022-11-02T01:59:51;24.17;;;11.50;;
20621;SDS011;10470;42.670;23.354;2022-11-02T02:02:19;20.60;;;11.33;;
20621;SDS011;10470;42.670;23.354;2022-11-02T02:04:49;25.07;;;11.83;;
20621;SDS011;10470;42.670;23.354;2022-11-02T02:07:18;21.43;;;11.40;;
20621;SDS011;10470;42.670;23.354;2022-11-02T02:09:45;23.20;;;11.23;;
20621;SDS011;10470;42.670;23.354;2022-11-02T02:12:11;23.23;;;11.37;;
20621;SDS011;10470;42.670;23.354;2022-11-02T02:14:38;21.97;;;11.60;;
20621;SDS011;10470;42.670;23.354;2022-11-02T02:30:37;20.70;;;10.30;;
20621;SDS011;10470;42.670;23.354;2022-11-02T02:33:09;22.87;;;11.23;;
20621;SDS011;10470;42.670;23.354;2022-11-02T02:38:10;20.67;;;10.97;;
20621;SDS011;10470;42.670;23.354;2022-11-02T02:40:47;17.90;;;10.70;;
20621;SDS011;10470;42.670;23.354;2022-11-02T02:43:17;20.50;;;11.23;;
20621;SDS011;10470;42.670;23.354;2022-11-02T02:45:53;22.47;;;11.33;;
20621;SDS011;10470;42.670;23.354;2022-11-02T02:48:25;21.80;;;10.20;;
20621;SDS011;10470;42.670;23.354;2022-11-02T02:51:01;21.10;;;11.67;;
20621;SDS011;10470;42.670;23.354;2022-11-02T02:53:35;22.37;;;10.83;;
20621;SDS011;10470;42.670;23.354;2022-11-02T02:56:03;19.57;;;10.53;;
20621;SDS011;10470;42.670;23.354;2022-11-02T02:58:33;22.53;;;10.83;;
20621;SDS011;10470;42.670;23.354;2022-11-02T03:01:04;20.07;;;10.93;;
20621;SDS011;10470;42.670;23.354;2022-11-02T03:03:30;24.10;;;11.37;;
20621;SDS011;10470;42.670;23.354;2022-11-02T03:08:40;22.10;;;10.93;;
20621;SDS011;10470;42.670;23.354;2022-11-02T03:11:14;21.23;;;11.37;;
20621;SDS011;10470;42.670;23.354;2022-11-02T03:16:40;20.17;;;10.63;;
20621;SDS011;10470;42.670;23.354;2022-11-02T03:19:23;24.17;;;10.87;;
20621;SDS011;10470;42.670;23.354;2022-11-02T03:21:54;22.27;;;11.60;;
20621;SDS011;10470;42.670;23.354;2022-11-02T03:24:40;25.00;;;11.53;;
20621;SDS011;10470;42.670;23.354;2022-11-02T03:27:16;22.60;;;11.43;;
20621;SDS011;10470;42.670;23.354;2022-11-02T03:29:55;19.47;;;11.03;;
20621;SDS011;10470;42.670;23.354;2022-11-02T03:32:47;30.57;;;11.37;;
20621;SDS011;10470;42.670;23.354;2022-11-02T03:35:23;19.47;;;11.40;;
20621;SDS011;10470;42.670;23.354;2022-11-02T03:37:59;32.80;;;13.33;;
20621;SDS011;10470;42.670;23.354;2022-11-02T03:40:33;34.57;;;12.20;;
20621;SDS011;10470;42.670;23.354;2022-11-02T03:43:04;28.23;;;11.53;;
20621;SDS011;10470;42.670;23.354;2022-11-02T03:45:36;28.50;;;11.83;;
20621;SDS011;10470;42.670;23.354;2022-11-02T03:48:05;28.77;;;11.80;;
20621;SDS011;10470;42.670;23.354;2022-11-02T03:50:33;23.77;;;10.70;;
20621;SDS011;10470;42.670;23.354;2022-11-02T03:53:05;24.97;;;10.90;;
20621;SDS011;10470;42.670;23.354;2022-11-02T03:55:37;25.57;;;11.73;;
20621;SDS011;10470;42.670;23.354;2022-11-02T03:58:08;25.43;;;11.43;;
20621;SDS011;10470;42.670;23.354;2022-11-02T04:00:36;29.17;;;12.07;;
20621;SDS011;10470;42.670;23.354;2022-11-02T04:03:09;24.10;;;11.63;;
20621;SDS011;10470;42.670;23.354;2022-11-02T04:05:36;24.27;;;10.93;;
20621;SDS011;10470;42.670;23.354;2022-11-02T04:08:02;22.80;;;10.90;;
20621;SDS011;10470;42.670;23.354;2022-11-02T04:10:50;20.90;;;10.70;;
20621;SDS011;10470;42.670;23.354;2022-11-02T04:13:35;19.47;;;11.17;;
20621;SDS011;10470;42.670;23.354;2022-11-02T04:16:20;26.73;;;11.37;;
20621;SDS011;10470;42.670;23.354;2022-11-02T04:18:46;23.23;;;11.70;;
20621;SDS011;10470;42.670;23.354;2022-11-02T04:21:30;20.77;;;11.00;;
20621;SDS011;10470;42.670;23.354;2022-11-02T04:23:56;28.30;;;12.33;;
20621;SDS011;10470;42.670;23.354;2022-11-02T04:26:40;26.50;;;11.37;;
20621;SDS011;10470;42.670;23.354;2022-11-02T04:29:05;19.73;;;11.00;;
20621;SDS011;10470;42.670;23.354;2022-11-02T04:31:31;22.43;;;11.23;;
20621;SDS011;10470;42.670;23.354;2022-11-02T04:33:57;22.03;;;10.80;;
20621;SDS011;10470;42.670;23.354;2022-11-02T04:36:23;23.30;;;12.33;;
20621;SDS011;10470;42.670;23.354;2022-11-02T04:38:49;24.40;;;11.87;;
20621;SDS011;10470;42.670;23.354;2022-11-02T04:41:17;22.77;;;11.77;;
20621;SDS011;10470;42.670;23.354;2022-11-02T04:44:02;20.47;;;11.20;;
20621;SDS011;10470;42.670;23.354;2022-11-02T04:46:29;18.33;;;10.70;;
20621;SDS011;10470;42.670;23.354;2022-11-02T04:48:56;18.70;;;10.27;;
20621;SDS011;10470;42.670;23.354;2022-11-02T04:51:25;22.00;;;10.00;;
20621;SDS011;10470;42.670;23.354;2022-11-02T04:53:52;22.77;;;10.47;;
20621;SDS011;10470;42.670;23.354;2022-11-02T04:56:19;17.63;;;9.80;;
20621;SDS011;10470;42.670;23.354;2022-11-02T04:58:52;19.43;;;10.07;;
20621;SDS011;10470;42.670;23.354;2022-11-02T05:01:19;20.00;;;10.40;;
20621;SDS011;10470;42.670;23.354;2022-11-02T05:03:46;16.07;;;9.70;;
20621;SDS011;10470;42.670;23.354;2022-11-02T05:06:13;18.63;;;10.80;;
20621;SDS011;10470;42.670;23.354;2022-11-02T05:08:39;19.27;;;11.17;;
20621;SDS011;10470;42.670;23.354;2022-11-02T05:11:05;32.87;;;14.30;;
20621;SDS011;10470;42.670;23.354;2022-11-02T05:13:32;32.17;;;16.70;;
20621;SDS011;10470;42.670;23.354;2022-11-02T05:15:58;30.20;;;16.80;;
20621;SDS011;10470;42.670;23.354;2022-11-02T05:18:24;24.90;;;13.10;;
20621;SDS011;10470;42.670;23.354;2022-11-02T05:20:52;27.13;;;12.90;;
20621;SDS011;10470;42.670;23.354;2022-11-02T05:23:22;25.50;;;14.67;;
20621;SDS011;10470;42.670;23.354;2022-11-02T05:25:52;26.77;;;12.50;;
20621;SDS011;10470;42.670;23.354;2022-11-02T05:28:22;21.10;;;11.63;;
20621;SDS011;10470;42.670;23.354;2022-11-02T05:30:49;22.63;;;10.93;;
20621;SDS011;10470;42.670;23.354;2022-11-02T05:33:15;20.83;;;10.23;;
20621;SDS011;10470;42.670;23.354;2022-11-02T05:35:41;20.23;;;9.80;;
20621;SDS011;10470;42.670;23.354;2022-11-02T05:38:06;25.90;;;11.03;;
20621;SDS011;10470;42.670;23.354;2022-11-02T05:40:32;25.73;;;11.30;;
20621;SDS011;10470;42.670;23.354;2022-11-02T05:43:01;20.83;;;11.37;;
20621;SDS011;10470;42.670;23.354;2022-11-02T05:45:27;19.33;;;10.80;;
20621;SDS011;10470;42.670;23.354;2022-11-02T05:47:53;24.23;;;11.07;;
20621;SDS011;10470;42.670;23.354;2022-11-02T05:50:18;24.23;;;11.40;;
20621;SDS011;10470;42.670;23.354;2022-11-02T05:52:45;26.90;;;12.60;;
20621;SDS011;10470;42.670;23.354;2022-11-02T05:55:10;29.90;;;13.47;;
20621;SDS011;10470;42.670;23.354;2022-11-02T05:57:36;29.70;;;12.80;;
20621;SDS011;10470;42.670;23.354;2022-11-02T06:00:03;29.93;;;13.10;;
20621;SDS011;10470;42.670;23.354;2022-11-02T06:02:29;25.33;;;12.73;;
20621;SDS011;10470;42.670;23.354;2022-11-02T06:04:55;29.60;;;12.83;;
20621;SDS011;10470;42.670;23.354;2022-11-02T06:07:20;30.73;;;14.43;;
20621;SDS011;10470;42.670;23.354;2022-11-02T06:09:46;31.30;;;13.77;;
20621;SDS011;10470;42.670;23.354;2022-11-02T06:12:12;28.40;;;14.50;;
20621;SDS011;10470;42.670;23.354;2022-11-02T06:14:37;31.97;;;13.97;;
20621;SDS011;10470;42.670;23.354;2022-11-02T06:17:03;30.03;;;15.07;;
20621;SDS011;10470;42.670;23.354;2022-11-02T06:19:28;26.87;;;14.50;;
20621;SDS011;10470;42.670;23.354;2022-11-02T06:21:54;33.40;;;16.60;;
20621;SDS011;10470;42.670;23.354;2022-11-02T06:24:19;27.57;;;15.63;;
20621;SDS011;10470;42.670;23.354;2022-11-02T06:26:45;30.57;;;15.93;;
20621;SDS011;10470;42.670;23.354;2022-11-02T06:29:11;27.07;;;15.73;;
20621;SDS011;10470;42.670;23.354;2022-11-02T06:31:37;27.37;;;14.00;;
20621;SDS011;10470;42.670;23.354;2022-11-02T06:34:02;27.17;;;13.53;;
20621;SDS011;10470;42.670;23.354;2022-11-02T06:36:28;28.77;;;14.67;;
20621;SDS011;10470;42.670;23.354;2022-11-02T06:38:53;29.40;;;15.53;;
20621;SDS011;10470;42.670;23.354;2022-11-02T06:41:19;27.13;;;14.10;;
20621;SDS011;10470;42.670;23.354;2022-11-02T06:43:44;24.77;;;13.83;;
20621;SDS011;10470;42.670;23.354;2022-11-02T06:46:10;34.00;;;14.37;;
20621;SDS011;10470;42.670;23.354;2022-11-02T06:48:35;28.93;;;15.37;;
20621;SDS011;10470;42.670;23.354;2022-11-02T06:51:01;34.80;;;15.83;;
20621;SDS011;10470;42.670;23.354;2022-11-02T06:53:30;42.97;;;16.77;;
20621;SDS011;10470;42.670;23.354;2022-11-02T06:55:56;31.27;;;15.07;;
20621;SDS011;10470;42.670;23.354;2022-11-02T06:58:23;32.07;;;15.43;;
20621;SDS011;10470;42.670;23.354;2022-11-02T07:00:49;35.13;;;15.50;;
20621;SDS011;10470;42.670;23.354;2022-11-02T07:03:15;32.90;;;16.43;;
20621;SDS011;10470;42.670;23.354;2022-11-02T07:05:41;35.43;;;16.27;;
20621;SDS011;10470;42.670;23.354;2022-11-02T07:08:06;36.33;;;15.80;;
20621;SDS011;10470;42.670;23.354;2022-11-02T07:10:32;32.33;;;16.70;;
20621;SDS011;10470;42.670;23.354;2022-11-02T07:12:59;39.53;;;19.83;;
20621;SDS011;10470;42.670;23.354;2022-11-02T07:15:25;40.90;;;20.33;;
20621;SDS011;10470;42.670;23.354;2022-11-02T07:17:51;41.90;;;21.60;;
20621;SDS011;10470;42.670;23.354;2022-11-02T07:20:17;43.10;;;21.30;;
20621;SDS011;10470;42.670;23.354;2022-11-02T07:22:53;44.43;;;21.03;;
20621;SDS011;10470;42.670;23.354;2022-11-02T07:25:20;48.17;;;20.77;;
20621;SDS011;10470;42.670;23.354;2022-11-02T07:27:46;39.90;;;20.60;;
20621;SDS011;10470;42.670;23.354;2022-11-02T07:30:12;36.30;;;20.80;;
20621;SDS011;10470;42.670;23.354;2022-11-02T07:32:38;37.60;;;20.33;;
20621;SDS011;10470;42.670;23.354;2022-11-02T07:35:06;34.00;;;18.90;;
20621;SDS011;10470;42.670;23.354;2022-11-02T07:37:33;33.70;;;17.37;;
20621;SDS011;10470;42.670;23.354;2022-11-02T07:39:58;34.17;;;18.17;;
20621;SDS011;10470;42.670;23.354;2022-11-02T07:42:24;28.47;;;17.03;;
20621;SDS011;10470;42.670;23.354;2022-11-02T07:44:49;34.60;;;17.53;;
20621;SDS011;10470;42.670;23.354;2022-11-02T07:47:15;33.43;;;16.97;;
20621;SDS011;10470;42.670;23.354;2022-11-02T07:49:40;33.03;;;17.30;;
20621;SDS011;10470;42.670;23.354;2022-11-02T07:52:06;32.80;;;17.47;;
20621;SDS011;10470;42.670;23.354;2022-11-02T07:54:31;40.13;;;18.47;;
20621;SDS011;10470;42.670;23.354;2022-11-02T07:56:57;34.90;;;17.40;;
20621;SDS011;10470;42.670;23.354;2022-11-02T07:59:23;29.27;;;16.80;;
20621;SDS011;10470;42.670;23.354;2022-11-02T08:01:48;32.87;;;16.63;;
20621;SDS011;10470;42.670;23.354;2022-11-02T08:04:13;35.17;;;18.23;;
20621;SDS011;10470;42.670;23.354;2022-11-02T08:06:39;35.63;;;17.83;;
20621;SDS011;10470;42.670;23.354;2022-11-02T08:09:04;32.67;;;17.73;;
20621;SDS011;10470;42.670;23.354;2022-11-02T08:11:30;36.50;;;17.43;;
20621;SDS011;10470;42.670;23.354;2022-11-02T08:13:55;44.40;;;19.20;;
20621;SDS011;10470;42.670;23.354;2022-11-02T08:16:21;38.90;;;18.83;;
20621;SDS011;10470;42.670;23.354;2022-11-02T08:18:47;32.53;;;17.87;;
20621;SDS011;10470;42.670;23.354;2022-11-02T08:21:13;30.23;;;18.67;;
20621;SDS011;10470;42.670;23.354;2022-11-02T08:23:38;37.60;;;19.07;;
20621;SDS011;10470;42.670;23.354;2022-11-02T08:26:04;39.77;;;19.93;;
20621;SDS011;10470;42.670;23.354;2022-11-02T08:28:30;33.83;;;19.07;;
20621;SDS011;10470;42.670;23.354;2022-11-02T08:30:59;38.77;;;20.47;;
20621;SDS011;10470;42.670;23.354;2022-11-02T08:33:25;31.10;;;18.43;;
20621;SDS011;10470;42.670;23.354;2022-11-02T08:35:51;32.17;;;19.03;;
20621;SDS011;10470;42.670;23.354;2022-11-02T08:38:17;37.00;;;19.50;;
20621;SDS011;10470;42.670;23.354;2022-11-02T08:40:47;40.07;;;18.63;;
20621;SDS011;10470;42.670;23.354;2022-11-02T08:43:13;32.53;;;18.23;;
20621;SDS011;10470;42.670;23.354;2022-11-02T08:45:40;39.57;;;19.27;;
20621;SDS011;10470;42.670;23.354;2022-11-02T08:48:07;36.03;;;19.63;;
20621;SDS011;10470;42.670;23.354;2022-11-02T08:50:33;32.73;;;20.17;;
20621;SDS011;10470;42.670;23.354;2022-11-02T08:52:59;33.73;;;18.77;;
20621;SDS011;10470;42.670;23.354;2022-11-02T08:55:26;33.47;;;17.27;;
20621;SDS011;10470;42.670;23.354;2022-11-02T08:57:52;33.53;;;18.73;;
20621;SDS011;10470;42.670;23.354;2022-11-02T09:00:20;39.40;;;17.70;;
20621;SDS011;10470;42.670;23.354;2022-11-02T09:03:00;37.03;;;18.93;;
20621;SDS011;10470;42.670;23.354;2022-11-02T09:05:43;30.37;;;17.73;;
20621;SDS011;10470;42.670;23.354;2022-11-02T09:08:11;33.33;;;18.00;;
20621;SDS011;10470;42.670;23.354;2022-11-02T09:10:38;27.27;;;17.47;;
20621;SDS011;10470;42.670;23.354;2022-11-02T09:13:05;32.40;;;18.23;;
20621;SDS011;10470;42.670;23.354;2022-11-02T09:15:33;33.93;;;18.40;;
20621;SDS011;10470;42.670;23.354;2022-11-02T09:18:00;31.43;;;18.43;;
20621;SDS011;10470;42.670;23.354;2022-11-02T09:20:26;37.40;;;17.53;;
20621;SDS011;10470;42.670;23.354;2022-11-02T09:22:52;34.23;;;17.20;;
20621;SDS011;10470;42.670;23.354;2022-11-02T09:25:18;37.23;;;18.33;;
20621;SDS011;10470;42.670;23.354;2022-11-02T09:27:43;38.53;;;18.50;;
20621;SDS011;10470;42.670;23.354;2022-11-02T09:30:10;36.50;;;18.23;;
20621;SDS011;10470;42.670;23.354;2022-11-02T09:32:36;33.07;;;18.80;;
20621;SDS011;10470;42.670;23.354;2022-11-02T09:35:03;32.43;;;18.37;;
20621;SDS011;10470;42.670;23.354;2022-11-02T09:37:31;36.10;;;18.97;;
20621;SDS011;10470;42.670;23.354;2022-11-02T09:39:57;32.17;;;17.60;;
20621;SDS011;10470;42.670;23.354;2022-11-02T09:42:28;30.50;;;17.80;;
20621;SDS011;10470;42.670;23.354;2022-11-02T09:45:04;31.77;;;17.23;;
20621;SDS011;10470;42.670;23.354;2022-11-02T09:47:38;32.50;;;15.43;;
20621;SDS011;10470;42.670;23.354;2022-11-02T09:50:14;27.97;;;15.57;;
20621;SDS011;10470;42.670;23.354;2022-11-02T09:52:45;33.57;;;16.43;;
20621;SDS011;10470;42.670;23.354;2022-11-02T09:55:22;33.20;;;14.80;;
20621;SDS011;10470;42.670;23.354;2022-11-02T09:58:12;27.93;;;14.13;;
20621;SDS011;10470;42.670;23.354;2022-11-02T10:00:43;32.17;;;15.20;;
20621;SDS011;10470;42.670;23.354;2022-11-02T10:05:45;26.67;;;14.70;;
20621;SDS011;10470;42.670;23.354;2022-11-02T10:16:31;28.40;;;13.87;;
20621;SDS011;10470;42.670;23.354;2022-11-02T10:19:10;30.97;;;13.90;;
20621;SDS011;10470;42.670;23.354;2022-11-02T10:21:39;28.83;;;14.37;;
20621;SDS011;10470;42.670;23.354;2022-11-02T10:24:23;33.47;;;13.97;;
20621;SDS011;10470;42.670;23.354;2022-11-02T10:26:54;28.30;;;14.03;;
20621;SDS011;10470;42.670;23.354;2022-11-02T10:32:27;32.63;;;15.03;;
20621;SDS011;10470;42.670;23.354;2022-11-02T10:34:54;27.93;;;15.47;;
20621;SDS011;10470;42.670;23.354;2022-11-02T10:45:20;24.50;;;14.83;;
20621;SDS011;10470;42.670;23.354;2022-11-02T10:48:31;28.40;;;14.83;;
20621;SDS011;10470;42.670;23.354;2022-11-02T10:51:08;30.43;;;14.50;;
20621;SDS011;10470;42.670;23.354;2022-11-02T10:53:39;25.87;;;13.70;;
20621;SDS011;10470;42.670;23.354;2022-11-02T10:58:35;18.40;;;8.90;;
20621;SDS011;10470;42.670;23.354;2022-11-02T11:01:06;15.53;;;8.33;;
20621;SDS011;10470;42.670;23.354;2022-11-02T11:03:34;19.70;;;8.13;;
20621;SDS011;10470;42.670;23.354;2022-11-02T11:06:17;20.60;;;8.53;;
20621;SDS011;10470;42.670;23.354;2022-11-02T11:08:43;22.40;;;9.23;;
20621;SDS011;10470;42.670;23.354;2022-11-02T11:11:33;17.30;;;8.20;;
20621;SDS011;10470;42.670;23.354;2022-11-02T11:14:13;18.37;;;8.67;;
20621;SDS011;10470;42.670;23.354;2022-11-02T11:19:33;16.60;;;8.23;;
20621;SDS011;10470;42.670;23.354;2022-11-02T11:22:25;17.23;;;8.50;;
20621;SDS011;10470;42.670;23.354;2022-11-02T11:25:19;14.60;;;5.97;;
20621;SDS011;10470;42.670;23.354;2022-11-02T11:27:48;16.10;;;6.20;;
20621;SDS011;10470;42.670;23.354;2022-11-02T11:32:52;14.00;;;6.07;;
20621;SDS011;10470;42.670;23.354;2022-11-02T11:35:19;12.67;;;4.83;;
20621;SDS011;10470;42.670;23.354;2022-11-02T11:37:57;10.57;;;4.60;;
20621;SDS011;10470;42.670;23.354;2022-11-02T11:40:26;12.90;;;4.93;;
20621;SDS011;10470;42.670;23.354;2022-11-02T11:42:56;12.20;;;4.57;;
20621;SDS011;10470;42.670;23.354;2022-11-02T11:45:22;14.03;;;4.93;;
20621;SDS011;10470;42.670;23.354;2022-11-02T11:48:33;8.77;;;4.03;;
20621;SDS011;10470;42.670;23.354;2022-11-02T11:50:57;7.93;;;3.57;;
20621;SDS011;10470;42.670;23.354;2022-11-02T11:53:25;9.60;;;3.73;;
20621;SDS011;10470;42.670;23.354;2022-11-02T12:00:46;7.97;;;3.53;;
20621;SDS011;10470;42.670;23.354;2022-11-02T13:56:54;9.57;;;4.20;;
20621;SDS011;10470;42.670;23.354;2022-11-02T13:59:33;10.77;;;4.03;;
20621;SDS011;10470;42.670;23.354;2022-11-02T14:02:07;10.23;;;3.93;;
20621;SDS011;10470;42.670;23.354;2022-11-02T14:04:48;7.30;;;4.00;;
20621;SDS011;10470;42.670;23.354;2022-11-02T14:12:43;7.07;;;3.67;;
20621;SDS011;10470;42.670;23.354;2022-11-02T14:20:35;13.73;;;4.47;;
20621;SDS011;10470;42.670;23.354;2022-11-02T14:25:47;12.00;;;4.40;;
20621;SDS011;10470;42.670;23.354;2022-11-02T14:34:35;13.77;;;4.77;;
20621;SDS011;10470;42.670;23.354;2022-11-02T14:48:56;10.47;;;4.77;;
20621;SDS011;10470;42.670;23.354;2022-11-02T14:51:25;10.07;;;5.20;;
20621;SDS011;10470;42.670;23.354;2022-11-02T14:53:57;8.07;;;4.80;;
20621;SDS011;10470;42.670;23.354;2022-11-02T14:59:52;12.77;;;5.33;;
20621;SDS011;10470;42.670;23.354;2022-11-02T15:05:02;13.40;;;4.90;;
20621;SDS011;10470;42.670;23.354;2022-11-02T15:07:47;11.23;;;5.57;;
20621;SDS011;10470;42.670;23.354;2022-11-02T15:12:42;13.23;;;4.97;;
20621;SDS011;10470;42.670;23.354;2022-11-02T15:23:43;15.20;;;5.67;;
20621;SDS011;10470;42.670;23.354;2022-11-02T15:26:18;11.60;;;5.43;;
20621;SDS011;10470;42.670;23.354;2022-11-02T15:28:55;11.33;;;5.80;;
20621;SDS011;10470;42.670;23.354;2022-11-02T15:31:25;12.00;;;5.70;;
20621;SDS011;10470;42.670;23.354;2022-11-02T15:33:55;12.60;;;5.93;;
20621;SDS011;10470;42.670;23.354;2022-11-02T15:36:38;11.83;;;6.00;;
20621;SDS011;10470;42.670;23.354;2022-11-02T15:39:10;15.27;;;5.77;;
20621;SDS011;10470;42.670;23.354;2022-11-02T15:55:13;14.47;;;6.03;;
20621;SDS011;10470;42.670;23.354;2022-11-02T16:03:55;16.47;;;5.77;;
20621;SDS011;10470;42.670;23.354;2022-11-02T16:06:28;14.77;;;6.17;;
20621;SDS011;10470;42.670;23.354;2022-11-02T16:08:57;17.30;;;6.10;;
20621;SDS011;10470;42.670;23.354;2022-11-02T16:11:25;15.73;;;5.80;;
20621;SDS011;10470;42.670;23.354;2022-11-02T16:13:50;14.77;;;5.17;;
20621;SDS011;10470;42.670;23.354;2022-11-02T16:16:18;15.83;;;5.73;;
20621;SDS011;10470;42.670;23.354;2022-11-02T16:18:49;14.20;;;6.33;;
20621;SDS011;10470;42.670;23.354;2022-11-02T16:21:21;12.93;;;5.80;;
20621;SDS011;10470;42.670;23.354;2022-11-02T16:23:48;13.30;;;5.33;;
20621;SDS011;10470;42.670;23.354;2022-11-02T16:26:19;15.00;;;5.47;;
20621;SDS011;10470;42.670;23.354;2022-11-02T16:28:51;10.43;;;5.33;;
20621;SDS011;10470;42.670;23.354;2022-11-02T16:31:23;13.53;;;5.57;;
20621;SDS011;10470;42.670;23.354;2022-11-02T16:33:58;14.33;;;5.53;;
20621;SDS011;10470;42.670;23.354;2022-11-02T16:36:40;11.83;;;5.40;;
20621;SDS011;10470;42.670;23.354;2022-11-02T16:41:47;13.27;;;5.50;;
20621;SDS011;10470;42.670;23.354;2022-11-02T16:44:23;13.90;;;5.47;;
20621;SDS011;10470;42.670;23.354;2022-11-02T16:49:55;11.97;;;5.93;;
20621;SDS011;10470;42.670;23.354;2022-11-02T16:52:22;11.17;;;5.57;;
20621;SDS011;10470;42.670;23.354;2022-11-02T16:54:53;15.53;;;5.90;;
20621;SDS011;10470;42.670;23.354;2022-11-02T16:57:20;13.97;;;6.00;;
20621;SDS011;10470;42.670;23.354;2022-11-02T17:02:37;10.97;;;5.63;;
20621;SDS011;10470;42.670;23.354;2022-11-02T17:05:04;13.23;;;5.67;;
20621;SDS011;10470;42.670;23.354;2022-11-02T17:07:39;14.00;;;6.23;;
20621;SDS011;10470;42.670;23.354;2022-11-02T17:10:40;12.47;;;5.57;;
20621;SDS011;10470;42.670;23.354;2022-11-02T17:13:14;15.33;;;5.73;;
20621;SDS011;10470;42.670;23.354;2022-11-02T17:15:51;10.80;;;6.07;;
20621;SDS011;10470;42.670;23.354;2022-11-02T17:18:25;11.57;;;5.87;;
20621;SDS011;10470;42.670;23.354;2022-11-02T17:23:36;10.87;;;5.40;;
20621;SDS011;10470;42.670;23.354;2022-11-02T17:31:37;12.13;;;5.40;;
20621;SDS011;10470;42.670;23.354;2022-11-02T17:34:08;12.57;;;5.27;;
20621;SDS011;10470;42.670;23.354;2022-11-02T17:36:40;15.50;;;5.90;;
20621;SDS011;10470;42.670;23.354;2022-11-02T17:39:08;14.17;;;5.23;;
20621;SDS011;10470;42.670;23.354;2022-11-02T17:41:39;10.90;;;5.40;;
20621;SDS011;10470;42.670;23.354;2022-11-02T17:44:26;13.47;;;5.80;;
20621;SDS011;10470;42.670;23.354;2022-11-02T17:46:53;10.37;;;5.33;;
20621;SDS011;10470;42.670;23.354;2022-11-02T17:49:19;15.87;;;6.17;;
20621;SDS011;10470;42.670;23.354;2022-11-02T17:51:45;15.77;;;5.53;;
20621;SDS011;10470;42.670;23.354;2022-11-02T17:54:16;13.37;;;5.40;;
20621;SDS011;10470;42.670;23.354;2022-11-02T17:56:43;12.87;;;4.93;;
20621;SDS011;10470;42.670;23.354;2022-11-02T17:59:37;12.70;;;5.97;;
20621;SDS011;10470;42.670;23.354;2022-11-02T18:02:04;13.97;;;5.10;;
20621;SDS011;10470;42.670;23.354;2022-11-02T18:04:42;9.83;;;4.60;;
20621;SDS011;10470;42.670;23.354;2022-11-02T18:07:15;9.67;;;4.70;;
20621;SDS011;10470;42.670;23.354;2022-11-02T18:09:40;13.23;;;4.90;;
20621;SDS011;10470;42.670;23.354;2022-11-02T18:12:09;8.17;;;5.13;;
20621;SDS011;10470;42.670;23.354;2022-11-02T18:14:37;9.50;;;4.63;;
20621;SDS011;10470;42.670;23.354;2022-11-02T18:17:04;11.50;;;5.03;;
20621;SDS011;10470;42.670;23.354;2022-11-02T18:19:30;9.93;;;4.77;;
20621;SDS011;10470;42.670;23.354;2022-11-02T18:21:57;14.63;;;5.10;;
20621;SDS011;10470;42.670;23.354;2022-11-02T18:24:25;8.53;;;4.33;;
20621;SDS011;10470;42.670;23.354;2022-11-02T18:26:51;13.13;;;4.80;;
20621;SDS011;10470;42.670;23.354;2022-11-02T18:29:19;11.30;;;4.57;;
20621;SDS011;10470;42.670;23.354;2022-11-02T18:31:45;10.73;;;4.80;;
20621;SDS011;10470;42.670;23.354;2022-11-02T18:34:10;12.47;;;4.93;;
20621;SDS011;10470;42.670;23.354;2022-11-02T18:36:39;8.67;;;4.50;;
20621;SDS011;10470;42.670;23.354;2022-11-02T18:39:05;14.37;;;5.40;;
20621;SDS011;10470;42.670;23.354;2022-11-02T18:41:31;14.03;;;4.80;;
20621;SDS011;10470;42.670;23.354;2022-11-02T18:44:02;12.13;;;5.23;;